Time;durP1;ratioP1;P1;durP2;ratioP2;P2;SDS_P1;SDS_P2;PMS_P1;PMS_P2;Temp;Humidity;BMP_temperature;BMP_pressure;BME280_temperature;BME280_humidity;BME280_pressure;Samples;Min_cycle;Max_cycle;Signal;HPM_P1;HPM_P2
2022/07/13 00:00:57;;;;;;;1999.90;999.90;;;;;;;19.38;53.95;96176.41;5008762;28;20054;-66
2022/07/13 00:03:22;;;;;;;1999.90;999.90;;;;;;;19.28;53.98;96168.75;5011167;28;20389;-66
2022/07/13 00:05:47;;;;;;;1999.90;999.90;;;;;;;19.27;54.02;96172.56;5010893;28;20081;-66
2022/07/13 00:08:13;;;;;;;1999.90;999.90;;;;;;;19.25;54.08;96181.00;5009452;28;20371;-65
2022/07/13 00:10:38;;;;;;;1999.90;999.90;;;;;;;19.25;54.17;96181.00;5010775;28;20053;-63
2022/07/13 00:13:03;;;;;;;1999.90;999.90;;;;;;;19.14;54.04;96167.16;5009754;28;20073;-64
2022/07/13 00:15:29;;;;;;;1999.90;999.90;;;;;;;19.23;54.40;96181.31;5007649;28;20083;-63
2022/07/13 00:17:54;;;;;;;1999.90;999.90;;;;;;;19.02;54.41;96150.91;5008910;28;20075;-63
2022/07/13 00:20:20;;;;;;;1999.90;999.90;;;;;;;19.01;54.16;96152.06;5010349;28;20030;-63
2022/07/13 00:22:45;;;;;;;1999.90;999.90;;;;;;;18.94;54.50;96151.81;5010011;28;20034;-63
2022/07/13 00:25:10;;;;;;;1999.90;999.90;;;;;;;18.91;54.49;96144.38;5008287;28;20119;-64
2022/07/13 00:27:36;;;;;;;1999.90;999.90;;;;;;;18.89;54.55;96139.31;5010357;28;20427;-63
2022/07/13 00:30:01;;;;;;;1999.90;999.90;;;;;;;18.89;54.54;96146.63;5010206;28;20030;-64
2022/07/13 00:32:26;;;;;;;1999.90;999.90;;;;;;;18.99;54.84;96170.47;5007792;28;20041;-63
2022/07/13 00:34:52;;;;;;;1999.90;999.90;;;;;;;18.96;54.84;96163.03;5009855;28;20453;-63
2022/07/13 00:37:17;;;;;;;1999.90;999.90;;;;;;;18.88;55.02;96158.50;5008918;28;20113;-63
2022/07/13 00:39:42;;;;;;;1999.90;999.90;;;;;;;18.88;55.16;96170.06;5008430;28;20045;-63
2022/07/13 00:42:07;;;;;;;1999.90;999.90;;;;;;;18.72;55.17;96141.38;5009543;28;20842;-63
2022/07/13 00:44:33;;;;;;;1999.90;999.90;;;;;;;18.62;55.26;96135.25;5009676;28;20096;-63
2022/07/13 00:46:58;;;;;;;1999.90;999.90;;;;;;;18.70;55.31;96150.59;4994015;28;20050;-63
2022/07/13 00:49:24;;;;;;;1999.90;999.90;;;;;;;18.78;55.05;96159.72;5003376;28;20029;-63
2022/07/13 00:51:50;;;;;;;1999.90;999.90;;;;;;;18.74;55.28;96158.81;5009499;28;20048;-63
2022/07/13 00:54:28;;;;;;;1999.90;999.90;;;;;;;18.72;55.14;96157.56;5009649;28;20093;-63
2022/07/13 00:56:54;;;;;;;1999.90;999.90;;;;;;;18.66;55.24;96154.25;5009284;28;20034;-64
2022/07/13 00:59:20;;;;;;;1999.90;999.90;;;;;;;18.45;55.30;96128.13;5009108;28;20029;-63
2022/07/13 01:01:45;;;;;;;1999.90;999.90;;;;;;;18.55;55.36;96148.47;5008095;28;20100;-63
2022/07/13 01:04:11;;;;;;;1999.90;999.90;;;;;;;18.33;54.95;96119.22;5008762;28;20105;-63
2022/07/13 01:06:37;;;;;;;1999.90;999.90;;;;;;;18.25;55.48;96101.19;5007656;28;20367;-63
2022/07/13 01:09:03;;;;;;;1999.90;999.90;;;;;;;18.57;55.75;96153.53;5024960;28;20022;-63
2022/07/13 01:11:29;;;;;;;1999.90;999.90;;;;;;;18.43;55.86;96137.66;5007509;28;20033;-63
2022/07/13 01:13:55;;;;;;;1999.90;999.90;;;;;;;18.34;56.34;96131.53;5009279;28;20069;-63
2022/07/13 01:16:21;;;;;;;1999.90;999.90;;;;;;;18.49;56.38;96162.50;5007938;28;20079;-63
2022/07/13 01:18:46;;;;;;;1999.90;999.90;;;;;;;18.37;56.04;96138.94;5008601;28;20029;-63
2022/07/13 01:21:12;;;;;;;1999.90;999.90;;;;;;;18.50;56.03;96164.06;5009294;28;20030;-64
2022/07/13 01:23:39;;;;;;;1999.90;999.90;;;;;;;18.27;55.99;96131.28;5006424;28;20045;-63
2022/07/13 01:26:07;;;;;;;1999.90;999.90;;;;;;;18.18;56.16;96113.28;5007893;28;20386;-64
2022/07/13 01:28:32;;;;;;;1999.90;999.90;;;;;;;18.43;56.03;96157.31;5008386;28;20026;-63
2022/07/13 01:30:58;;;;;;;1999.90;999.90;;;;;;;18.27;56.15;96131.28;5008634;28;20125;-62
2022/07/13 01:33:23;;;;;;;1999.90;999.90;;;;;;;18.05;56.39;96111.63;5006832;28;20459;-63
2022/07/13 01:35:48;;;;;;;1999.90;999.90;;;;;;;18.30;56.58;96142.19;5008277;28;20410;-63
2022/07/13 01:38:14;;;;;;;1999.90;999.90;;;;;;;18.21;56.71;96130.69;5007656;28;20506;-63
2022/07/13 01:40:41;;;;;;;1999.90;999.90;;;;;;;18.32;56.90;96153.41;5009403;28;20034;-64
2022/07/13 01:43:07;;;;;;;1999.90;999.90;;;;;;;18.35;56.85;96150.06;5007656;28;20113;-63
2022/07/13 01:45:32;;;;;;;1999.90;999.90;;;;;;;18.30;56.76;96136.00;5008621;28;20022;-63
2022/07/13 01:47:58;;;;;;;1999.90;999.90;;;;;;;18.22;56.91;96131.47;5009724;28;20113;-63
2022/07/13 01:50:25;;;;;;;1999.90;999.90;;;;;;;18.15;57.01;96130.09;5008324;28;20492;-63
2022/07/13 01:52:51;;;;;;;1999.90;999.90;;;;;;;18.21;57.01;96137.97;5007809;28;20079;-63
2022/07/13 01:55:17;;;;;;;1999.90;999.90;;;;;;;18.32;57.06;96161.47;5006711;28;20030;-64
2022/07/13 01:57:43;;;;;;;1999.90;999.90;;;;;;;18.27;57.14;96147.44;5007429;28;20030;-63
2022/07/13 02:00:17;;;;;;;1999.90;999.90;;;;;;;18.26;57.25;96151.25;5008379;28;20022;-64
2022/07/13 02:02:43;;;;;;;1999.90;999.90;;;;;;;18.19;57.54;96144.47;4999131;28;20026;-63
2022/07/13 02:05:10;;;;;;;1999.90;999.90;;;;;;;18.14;57.50;96133.91;5008695;28;20566;-63
2022/07/13 02:07:37;;;;;;;1999.90;999.90;;;;;;;18.09;57.28;96119.84;5007733;28;20065;-63
2022/07/13 02:10:04;;;;;;;1999.90;999.90;;;;;;;18.12;57.61;96136.16;5008368;28;20412;-63
2022/07/13 02:12:30;;;;;;;1999.90;999.90;;;;;;;17.94;57.65;96118.53;5008430;28;20034;-63
2022/07/13 02:14:55;;;;;;;1999.90;999.90;;;;;;;17.84;57.82;96106.22;5008045;28;20029;-63
2022/07/13 02:17:20;;;;;;;1999.90;999.90;;;;;;;17.84;57.79;96108.94;5011920;28;20750;-63
2022/07/13 02:19:46;;;;;;;1999.90;999.90;;;;;;;18.00;57.80;96137.97;5012136;28;20459;-63
2022/07/13 02:22:11;;;;;;;1999.90;999.90;;;;;;;17.92;58.33;96128.84;5011896;28;20544;-63
2022/07/13 02:24:36;;;;;;;1999.90;999.90;;;;;;;18.02;58.17;96154.59;5011029;28;20040;-63
2022/07/13 02:27:02;;;;;;;1999.90;999.90;;;;;;;17.85;58.54;96126.66;5012859;28;20065;-64
2022/07/13 02:29:28;;;;;;;1999.90;999.90;;;;;;;18.00;58.16;96149.50;5011990;28;20030;-64
2022/07/13 02:31:53;;;;;;;1999.90;999.90;;;;;;;17.87;58.50;96137.09;5010987;28;20057;-63
2022/07/13 02:34:19;;;;;;;1999.90;999.90;;;;;;;17.74;58.44;96108.53;5010147;28;20057;-64
2022/07/13 02:36:44;;;;;;;1999.90;999.90;;;;;;;17.80;58.61;96124.13;5010078;28;20044;-64
2022/07/13 02:39:09;;;;;;;1999.90;999.90;;;;;;;17.84;58.98;96129.66;5010695;28;20030;-63
2022/07/13 02:41:34;;;;;;;1999.90;999.90;;;;;;;17.72;58.76;96111.50;5009894;28;20092;-63
2022/07/13 02:44:00;;;;;;;1999.90;999.90;;;;;;;17.84;58.93;96125.06;5011674;28;20041;-63
2022/07/13 02:46:25;;;;;;;1999.90;999.90;;;;;;;17.83;59.03;96133.47;5010078;28;20030;-63
2022/07/13 02:48:50;;;;;;;1999.90;999.90;;;;;;;17.91;58.89;96140.69;5012957;28;20937;-63
2022/07/13 02:51:16;;;;;;;1999.90;999.90;;;;;;;17.88;58.89;96133.28;5010693;28;20112;-63
2022/07/13 02:53:41;;;;;;;1999.90;999.90;;;;;;;17.82;59.18;96131.91;5010552;28;20504;-63
2022/07/13 02:56:07;;;;;;;1999.90;999.90;;;;;;;17.81;58.99;96119.53;5010843;28;20431;-64
2022/07/13 02:58:33;;;;;;;1999.90;999.90;;;;;;;17.49;59.28;96084.09;5010243;28;20029;-63
2022/07/13 03:00:58;;;;;;;1999.90;999.90;;;;;;;17.80;59.38;96134.13;5009648;28;20494;-64
2022/07/13 03:05:57;;;;;;;1999.90;999.90;;;;;;;17.72;59.65;96105.34;5028850;28;20064;-70
2022/07/13 03:08:23;;;;;;;1999.90;999.90;;;;;;;17.88;59.82;96134.09;5030372;28;20037;-71
2022/07/13 03:10:48;;;;;;;1999.90;999.90;;;;;;;17.82;60.07;96129.22;5031942;28;20090;-71
2022/07/13 03:13:14;;;;;;;1999.90;999.90;;;;;;;17.76;59.77;96117.84;5030466;28;20533;-70
2022/07/13 03:15:39;;;;;;;1999.90;999.90;;;;;;;17.84;59.65;96116.22;5018675;28;20112;-70
2022/07/13 03:18:04;;;;;;;1999.90;999.90;;;;;;;17.83;59.56;96118.13;5028837;28;20030;-71
2022/07/13 03:20:29;;;;;;;1999.90;999.90;;;;;;;17.80;59.46;96124.13;5031248;28;20043;-69
2022/07/13 03:22:55;;;;;;;1999.90;999.90;;;;;;;17.82;59.40;96134.59;5030286;28;20021;-70
2022/07/13 03:25:20;;;;;;;1999.90;999.90;;;;;;;17.83;59.40;96136.97;5029220;28;20053;-70
2022/07/13 03:27:45;;;;;;;1999.90;999.90;;;;;;;17.82;59.49;96130.00;5031195;28;20019;-71
2022/07/13 03:30:11;;;;;;;1999.90;999.90;;;;;;;17.85;59.61;96142.00;5029243;28;20052;-70
2022/07/13 03:32:36;;;;;;;1999.90;999.90;;;;;;;17.82;59.51;96137.28;5029553;28;20033;-70
2022/07/13 03:35:01;;;;;;;1999.90;999.90;;;;;;;17.82;59.54;96130.00;5029941;28;20459;-70
2022/07/13 03:37:27;;;;;;;1999.90;999.90;;;;;;;17.85;59.71;96136.63;5031529;28;20084;-70
2022/07/13 03:39:52;;;;;;;1999.90;999.90;;;;;;;17.83;59.45;96146.94;5029556;28;20088;-70
2022/07/13 03:42:18;;;;;;;1999.90;999.90;;;;;;;17.86;59.35;96143.56;5031613;28;20022;-71
2022/07/13 03:44:43;;;;;;;1999.90;999.90;;;;;;;17.93;59.22;96138.50;5028676;28;20022;-70
2022/07/13 03:47:08;;;;;;;1999.90;999.90;;;;;;;17.96;59.06;96135.13;5029470;28;20072;-70
2022/07/13 03:49:34;;;;;;;1999.90;999.90;;;;;;;17.92;58.93;96139.59;5030299;28;20462;-70
2022/07/13 03:51:59;;;;;;;1999.90;999.90;;;;;;;18.01;58.71;96140.31;5030472;28;20017;-70
2022/07/13 03:54:24;;;;;;;1999.90;999.90;;;;;;;17.98;58.52;96130.22;5029763;28;20025;-70
2022/07/13 03:56:49;;;;;;;1999.90;999.90;;;;;;;18.04;58.60;96139.69;5028831;28;20072;-70
2022/07/13 03:59:15;;;;;;;1999.90;999.90;;;;;;;18.12;58.54;96141.53;5031083;28;20373;-70
2022/07/13 04:01:41;;;;;;;1999.90;999.90;;;;;;;18.13;58.36;96137.72;5029798;28;20452;-71
2022/07/13 04:04:06;;;;;;;1999.90;999.90;;;;;;;18.21;58.44;96137.97;5025770;28;20033;-71
2022/07/13 04:06:32;;;;;;;1999.90;999.90;;;;;;;18.32;58.18;96136.47;5022170;28;20080;-70
2022/07/13 04:08:57;;;;;;;1999.90;999.90;;;;;;;18.48;58.05;96136.66;5028554;28;20033;-70
2022/07/13 04:11:23;;;;;;;1999.90;999.90;;;;;;;18.84;57.16;96128.75;5030011;28;20564;-71
2022/07/13 04:13:48;;;;;;;1999.90;999.90;;;;;;;19.25;56.55;96131.66;5029413;28;20025;-70
2022/07/13 04:16:13;;;;;;;1999.90;999.90;;;;;;;19.59;55.19;96114.25;5021758;28;20040;-70
2022/07/13 04:18:39;;;;;;;1999.90;999.90;;;;;;;20.03;54.27;96123.34;5024434;28;20057;-70
2022/07/13 04:21:04;;;;;;;1999.90;999.90;;;;;;;20.38;53.35;96112.00;5029828;28;20025;-70
2022/07/13 04:23:30;;;;;;;1999.90;999.90;;;;;;;20.75;52.42;96116.16;5027242;28;20053;-70
2022/07/13 04:25:57;;;;;;;1999.90;999.90;;;;;;;21.11;51.81;96119.03;5028288;28;20033;-70
2022/07/13 04:28:23;;;;;;;1999.90;999.90;;;;;;;21.37;50.34;96118.53;5030766;28;20029;-70
2022/07/13 04:30:48;;;;;;;1999.90;999.90;;;;;;;21.64;49.94;96114.94;5026722;28;20049;-71
2022/07/13 04:33:14;;;;;;;1999.90;999.90;;;;;;;21.93;49.27;96115.59;5028692;28;20025;-71
2022/07/13 04:35:39;;;;;;;1999.90;999.90;;;;;;;22.13;48.65;96106.41;5029388;28;20033;-71
2022/07/13 04:38:05;;;;;;;1999.90;999.90;;;;;;;22.33;48.37;96098.28;5026474;28;20482;-70
2022/07/13 04:40:30;;;;;;;1999.90;999.90;;;;;;;22.51;47.15;96094.78;5028291;28;20099;-71
2022/07/13 04:42:55;;;;;;;1999.90;999.90;;;;;;;22.76;46.96;96105.31;5029985;28;20412;-71
2022/07/13 04:45:21;;;;;;;1999.90;999.90;;;;;;;22.88;46.56;96096.25;5029278;28;20100;-70
2022/07/13 04:47:46;;;;;;;1999.90;999.90;;;;;;;23.08;46.67;96100.50;5030307;28;20049;-71
2022/07/13 04:50:12;;;;;;;1999.90;999.90;;;;;;;23.25;45.60;96096.56;5028013;28;20113;-71
2022/07/13 04:52:37;;;;;;;1999.90;999.90;;;;;;;23.32;45.49;96096.66;5029612;28;20074;-70
2022/07/13 04:55:03;;;;;;;1999.90;999.90;;;;;;;23.38;45.17;96097.13;5027601;28;20025;-71
2022/07/13 04:57:28;;;;;;;1999.90;999.90;;;;;;;23.38;44.60;96095.22;5030323;28;20029;-71
2022/07/13 04:59:54;;;;;;;1999.90;999.90;;;;;;;23.45;44.36;96092.63;5026978;28;20044;-71
2022/07/13 05:02:19;;;;;;;1999.90;999.90;;;;;;;23.53;44.21;96093.50;5029454;28;20025;-71
2022/07/13 05:04:44;;;;;;;1999.90;999.90;;;;;;;23.65;44.05;96087.91;5029575;28;20494;-71
2022/07/13 05:07:10;;;;;;;1999.90;999.90;;;;;;;23.72;44.31;96085.31;5030326;28;20040;-76
2022/07/13 05:09:35;;;;;;;1999.90;999.90;;;;;;;23.84;43.82;96084.28;5028366;28;20036;-72
2022/07/13 05:12:00;;;;;;;1999.90;999.90;;;;;;;23.84;44.01;96074.22;5021062;28;20436;-71
2022/07/13 05:14:25;;;;;;;1999.90;999.90;;;;;;;24.02;43.53;96079.91;5009874;28;20030;-73
2022/07/13 05:16:51;;;;;;;1999.90;999.90;;;;;;;24.12;43.17;96082.00;5022880;28;20065;-70
2022/07/13 05:19:16;;;;;;;1999.90;999.90;;;;;;;24.27;43.16;96087.63;5030535;28;20104;-71
2022/07/13 05:21:42;;;;;;;1999.90;999.90;;;;;;;24.33;42.87;96075.25;5028768;28;20109;-70
2022/07/13 05:24:07;;;;;;;1999.90;999.90;;;;;;;24.40;42.85;96083.50;5029149;28;20065;-72
2022/07/13 05:26:33;;;;;;;1999.90;999.90;;;;;;;24.42;42.63;96083.94;5028049;28;20025;-71
2022/07/13 05:28:58;;;;;;;1999.90;999.90;;;;;;;24.41;42.20;96076.91;5028933;28;20036;-71
2022/07/13 05:31:23;;;;;;;1999.90;999.90;;;;;;;24.31;41.91;96077.53;5027678;28;20032;-71
2022/07/13 05:33:48;;;;;;;1999.90;999.90;;;;;;;24.47;42.45;96093.72;5028026;28;20037;-72
2022/07/13 05:36:14;;;;;;;1999.90;999.90;;;;;;;24.52;42.56;96090.66;5028680;28;20037;-72
2022/07/13 05:38:39;;;;;;;1999.90;999.90;;;;;;;24.45;41.82;96087.84;5027434;28;20083;-71
2022/07/13 05:41:04;;;;;;;1999.90;999.90;;;;;;;24.59;42.06;96090.75;5025753;28;20030;-69
2022/07/13 05:43:30;;;;;;;1999.90;999.90;;;;;;;24.51;41.13;96086.34;5029105;28;20028;-70
2022/07/13 05:45:56;;;;;;;1999.90;999.90;;;;;;;24.45;41.96;96083.19;5021954;28;20029;-70
2022/07/13 05:48:21;;;;;;;1999.90;999.90;;;;;;;24.68;42.11;96090.47;5010984;28;20052;-70
2022/07/13 05:50:47;;;;;;;1999.90;999.90;;;;;;;24.73;41.71;96082.75;5028398;28;20053;-70
2022/07/13 05:53:13;;;;;;;1999.90;999.90;;;;;;;24.84;41.55;96082.84;5029092;28;20419;-69
2022/07/13 05:55:38;;;;;;;1999.90;999.90;;;;;;;24.89;41.58;96074.34;5027074;28;20017;-70
2022/07/13 05:58:03;;;;;;;1999.90;999.90;;;;;;;24.76;41.53;96051.28;5029138;28;20037;-71
2022/07/13 06:00:29;;;;;;;1999.90;999.90;;;;;;;24.86;41.55;96069.66;5027738;28;20026;-70
2022/07/13 06:02:54;;;;;;;1999.90;999.90;;;;;;;24.89;41.29;96074.34;5029938;28;20029;-71
2022/07/13 06:05:19;;;;;;;1999.90;999.90;;;;;;;24.90;41.28;96070.47;5029320;28;20037;-70
2022/07/13 06:07:45;;;;;;;1999.90;999.90;;;;;;;24.97;41.11;96075.19;5029993;28;20037;-72
2022/07/13 06:10:10;;;;;;;1999.90;999.90;;;;;;;24.97;40.97;96064.31;5023933;28;20037;-69
2022/07/13 06:12:36;;;;;;;1999.90;999.90;;;;;;;25.02;40.58;96061.25;5023444;28;20030;-68
2022/07/13 06:15:01;;;;;;;1999.90;999.90;;;;;;;25.08;40.53;96066.03;5041683;28;20389;-68
2022/07/13 06:17:26;;;;;;;1999.90;999.90;;;;;;;25.12;41.08;96055.16;5024591;28;20048;-67
2022/07/13 06:19:52;;;;;;;1999.90;999.90;;;;;;;25.15;40.83;96049.75;5028525;28;20036;-67
2022/07/13 06:22:17;;;;;;;1999.90;999.90;;;;;;;25.35;40.52;96063.91;5028850;28;20060;-67
2022/07/13 06:24:43;;;;;;;1999.90;999.90;;;;;;;25.35;40.20;96057.69;5024681;28;20112;-69
2022/07/13 06:27:09;;;;;;;1999.90;999.90;;;;;;;25.53;40.17;96065.97;5029421;28;20040;-66
2022/07/13 06:29:35;;;;;;;1999.90;999.90;;;;;;;25.60;40.26;96057.88;5028108;28;20030;-68
2022/07/13 06:32:00;;;;;;;1999.90;999.90;;;;;;;25.68;39.84;96062.97;5027094;28;20108;-67
2022/07/13 06:34:25;;;;;;;1999.90;999.90;;;;;;;25.74;39.46;96059.91;5027251;28;20032;-68
2022/07/13 06:36:51;;;;;;;1999.90;999.90;;;;;;;25.79;39.69;96049.44;5027616;28;20112;-69
2022/07/13 06:39:17;;;;;;;1999.90;999.90;;;;;;;25.81;39.10;96047.13;5026036;28;20026;-67
2022/07/13 06:41:42;;;;;;;1999.90;999.90;;;;;;;25.90;38.53;96053.03;5027727;28;20028;-68
2022/07/13 06:44:07;;;;;;;1999.90;999.90;;;;;;;26.01;38.88;96053.09;5027511;28;20435;-71
2022/07/13 06:46:33;;;;;;;1999.90;999.90;;;;;;;26.07;39.59;96058.97;5027015;28;20083;-73
2022/07/13 06:48:58;;;;;;;1999.90;999.90;;;;;;;26.13;38.60;96052.75;5027260;28;20363;-71
2022/07/13 06:51:23;;;;;;;1999.90;999.90;;;;;;;26.05;38.10;96051.16;5028491;28;20026;-71
2022/07/13 06:53:49;;;;;;;1999.90;999.90;;;;;;;25.95;37.71;96034.72;5028699;28;20116;-69
2022/07/13 06:56:14;;;;;;;1999.90;999.90;;;;;;;25.94;37.40;96025.78;5026887;28;20489;-72
2022/07/13 06:58:40;;;;;;;1999.90;999.90;;;;;;;26.06;37.79;96044.56;5027680;28;20036;-70
2022/07/13 07:01:05;;;;;;;1999.90;999.90;;;;;;;26.12;38.10;96042.25;5025812;28;20032;-68
2022/07/13 07:03:30;;;;;;;1999.90;999.90;;;;;;;26.11;37.57;96043.41;5028230;28;20539;-69
2022/07/13 07:05:56;;;;;;;1999.90;999.90;;;;;;;26.00;37.92;96034.38;5032044;28;20060;-67
2022/07/13 07:08:22;;;;;;;1999.90;999.90;;;;;;;25.67;37.93;96041.56;5033038;28;20041;-69
2022/07/13 07:10:47;;;;;;;1999.90;999.90;;;;;;;25.80;38.22;96037.41;5028011;28;20030;-69
2022/07/13 07:13:13;;;;;;;1999.90;999.90;;;;;;;25.61;38.55;96037.63;5029715;28;20025;-69
2022/07/13 07:15:39;;;;;;;1999.90;999.90;;;;;;;25.91;37.40;96046.41;5027921;28;20174;-69
2022/07/13 07:18:04;;;;;;;1999.90;999.90;;;;;;;25.96;36.42;96037.09;5030462;28;20030;-71
2022/07/13 07:20:30;;;;;;;1999.90;999.90;;;;;;;26.27;34.85;96051.28;5026944;28;20462;-70
2022/07/13 07:22:55;;;;;;;1999.90;999.90;;;;;;;26.61;35.19;96047.09;5029572;28;20039;-69
2022/07/13 07:25:21;;;;;;;1999.90;999.90;;;;;;;26.77;34.34;96040.53;5029167;28;20471;-70
2022/07/13 07:27:47;;;;;;;1999.90;999.90;;;;;;;26.93;34.33;96049.94;5030380;28;20116;-70
2022/07/13 07:30:13;;;;;;;1999.90;999.90;;;;;;;27.05;33.58;96046.03;5029461;28;20473;-69
2022/07/13 07:32:39;;;;;;;1999.90;999.90;;;;;;;27.07;31.83;96049.19;5029899;28;20026;-69
2022/07/13 07:35:06;;;;;;;1999.90;999.90;;;;;;;27.00;31.31;96056.56;5030305;28;20029;-71
2022/07/13 07:37:32;;;;;;;1999.90;999.90;;;;;;;26.19;32.27;96050.44;5032357;28;20053;-71
2022/07/13 07:39:57;;;;;;;1999.90;999.90;;;;;;;26.38;32.03;96063.78;5030468;28;20112;-72
2022/07/13 07:42:22;;;;;;;1999.90;999.90;;;;;;;25.98;32.72;96047.63;5029927;28;20056;-69
2022/07/13 07:44:48;;;;;;;1999.90;999.90;;;;;;;26.53;31.80;96053.72;5031006;28;20029;-70
2022/07/13 07:47:13;;;;;;;1999.90;999.90;;;;;;;26.27;31.11;96046.59;5029265;28;20095;-69
2022/07/13 07:49:39;;;;;;;1999.90;999.90;;;;;;;26.48;30.89;96053.31;5031225;28;20025;-69
2022/07/13 07:52:04;;;;;;;1999.90;999.90;;;;;;;26.79;30.44;96041.72;5031601;28;20489;-69
2022/07/13 07:54:29;;;;;;;1999.90;999.90;;;;;;;26.73;30.93;96043.25;5031575;28;20084;-69
2022/07/13 07:56:55;;;;;;;1999.90;999.90;;;;;;;26.85;31.42;96042.88;5030990;28;20029;-70
2022/07/13 07:59:21;;;;;;;1999.90;999.90;;;;;;;27.27;30.20;96046.84;5029835;28;20025;-69
2022/07/13 08:01:46;;;;;;;1999.90;999.90;;;;;;;27.47;30.33;96034.34;5026498;28;20726;-69
2022/07/13 08:04:11;;;;;;;1999.90;999.90;;;;;;;27.50;29.91;96029.28;5030805;28;20437;-74
2022/07/13 08:06:38;;;;;;;1999.90;999.90;;;;;;;27.53;28.73;96033.97;5030680;28;20060;-69
2022/07/13 08:09:03;;;;;;;1999.90;999.90;;;;;;;27.82;29.34;96032.00;5029680;28;20128;-69
2022/07/13 08:11:29;;;;;;;1999.90;999.90;;;;;;;28.09;29.26;96033.09;5027776;28;20056;-70
2022/07/13 08:13:54;;;;;;;1999.90;999.90;;;;;;;28.15;28.98;96037.00;5029454;28;20080;-70
2022/07/13 08:16:20;;;;;;;1999.90;999.90;;;;;;;28.22;28.90;96034.22;5029777;28;20075;-70
2022/07/13 08:18:45;;;;;;;1999.90;999.90;;;;;;;28.31;28.82;96038.50;5029966;28;20060;-70
2022/07/13 08:21:11;;;;;;;1999.90;999.90;;;;;;;28.43;28.34;96038.06;5029789;28;20029;-70
2022/07/13 08:23:53;;;;;;;1999.90;999.90;;;;;;;28.58;27.52;96044.25;5031536;28;20428;-69
2022/07/13 08:26:19;;;;;;;1999.90;999.90;;;;;;;28.73;27.13;96043.00;5029100;28;20029;-70
2022/07/13 08:28:45;;;;;;;1999.90;999.90;;;;;;;28.81;27.08;96044.50;5029109;28;20025;-71
2022/07/13 08:31:11;;;;;;;1999.90;999.90;;;;;;;28.37;27.24;96051.38;5030747;28;20105;-70
2022/07/13 08:39:06;;;;;;;1999.90;999.90;;;;;;;28.64;27.17;96037.19;5030762;28;20114;-70
2022/07/13 08:41:32;;;;;;;1999.90;999.90;;;;;;;29.35;26.83;96041.44;5028586;28;20427;-70
2022/07/13 08:43:58;;;;;;;1999.90;999.90;;;;;;;29.36;25.69;96027.31;5030275;28;20025;-70
2022/07/13 08:46:25;;;;;;;1999.90;999.90;;;;;;;29.48;25.17;96029.56;5030411;28;20087;-72
2022/07/13 08:48:53;;;;;;;1999.90;999.90;;;;;;;29.46;25.63;96039.38;5029861;28;20037;-70
2022/07/13 08:51:20;;;;;;;1999.90;999.90;;;;;;;29.22;25.28;96035.66;5030445;28;20037;-70
2022/07/13 08:53:47;;;;;;;1999.90;999.90;;;;;;;29.71;25.53;96028.97;5030805;28;20021;-70
2022/07/13 08:56:13;;;;;;;1999.90;999.90;;;;;;;29.50;25.25;96029.94;5029817;28;20505;-70
2022/07/13 08:58:38;;;;;;;1999.90;999.90;;;;;;;30.47;24.91;96023.47;5029986;28;20037;-69
2022/07/13 09:01:05;;;;;;;1999.90;999.90;;;;;;;30.79;23.87;96025.78;5030295;28;20021;-70
2022/07/13 09:03:34;;;;;;;1999.90;999.90;;;;;;;30.67;23.15;96024.38;5030181;28;20403;-69
2022/07/13 09:06:02;;;;;;;1999.90;999.90;;;;;;;30.73;23.53;96027.44;5028690;28;20029;-70
2022/07/13 09:08:28;;;;;;;1999.90;999.90;;;;;;;29.58;24.11;96016.19;5030764;28;20017;-70
2022/07/13 09:11:01;;;;;;;1999.90;999.90;;;;;;;30.21;23.17;96033.97;5028165;28;20457;-71
2022/07/13 09:13:44;;;;;;;1999.90;999.90;;;;;;;30.38;23.65;96026.69;5029646;28;20431;-72
2022/07/13 09:16:17;;;;;;;1999.90;999.90;;;;;;;30.31;23.90;96028.75;5029741;28;20025;-70
2022/07/13 09:18:44;;;;;;;1999.90;999.90;;;;;;;30.69;23.18;96023.94;5029673;28;20033;-70
2022/07/13 09:21:10;;;;;;;1999.90;999.90;;;;;;;30.71;22.53;96030.63;5028517;28;20531;-72
2022/07/13 09:23:36;;;;;;;1999.90;999.90;;;;;;;30.72;21.21;96036.88;5029948;28;20026;-71
2022/07/13 09:26:01;;;;;;;1999.90;999.90;;;;;;;30.74;20.33;96032.53;5028247;28;20182;-71
2022/07/13 09:28:26;;;;;;;1999.90;999.90;;;;;;;30.98;20.00;96030.63;5028056;28;20036;-70
2022/07/13 09:31:00;;;;;;;1999.90;999.90;;;;;;;31.62;20.24;96047.28;5030110;28;20018;-70
2022/07/13 09:33:33;;;;;;;1999.90;999.90;;;;;;;31.69;20.08;96034.19;5039963;28;20151;-70
2022/07/13 09:36:07;;;;;;;1999.90;999.90;;;;;;;32.47;20.53;96034.72;5048779;28;20025;-70
2022/07/13 09:38:36;;;;;;;1999.90;999.90;;;;;;;32.72;18.95;96047.19;5038342;28;20178;-72
2022/07/13 09:41:23;;;;;;;1999.90;999.90;;;;;;;33.30;18.85;96036.44;5028856;28;20025;-73
2022/07/13 09:47:00;;;;;;;1999.90;999.90;;;;;;;33.80;18.02;96035.97;5030048;28;20519;-72
2022/07/13 09:49:39;;;;;;;1999.90;999.90;;;;;;;33.96;17.04;96043.47;5027999;28;20086;-71
2022/07/13 09:52:06;;;;;;;1999.90;999.90;;;;;;;34.42;17.20;96026.81;5030029;28;20025;-71
2022/07/13 09:54:34;;;;;;;1999.90;999.90;;;;;;;32.57;17.97;96032.94;5030119;28;20057;-70
2022/07/13 09:57:03;;;;;;;1999.90;999.90;;;;;;;32.92;18.79;96028.66;5028011;28;20026;-71
2022/07/13 09:59:29;;;;;;;1999.90;999.90;;;;;;;34.20;17.67;96021.91;5028823;28;20037;-71
2022/07/13 10:01:55;;;;;;;1999.90;999.90;;;;;;;35.03;17.41;96023.84;5027808;28;20037;-70
2022/07/13 10:04:21;;;;;;;1999.90;999.90;;;;;;;35.32;16.54;96022.91;5026782;28;20033;-71
2022/07/13 10:06:47;;;;;;;1999.90;999.90;;;;;;;35.59;16.84;96022.47;5027719;28;20083;-71
2022/07/13 10:09:14;;;;;;;1999.90;999.90;;;;;;;36.14;16.63;96029.25;5026629;28;20163;-71
2022/07/13 10:11:39;;;;;;;1999.90;999.90;;;;;;;36.30;16.21;96031.06;5028893;28;20025;-71
2022/07/13 10:14:06;;;;;;;1999.90;999.90;;;;;;;36.22;15.21;96032.53;5027986;28;20033;-71
2022/07/13 10:16:32;;;;;;;1999.90;999.90;;;;;;;34.86;16.75;96027.91;5030007;28;20382;-71
2022/07/13 10:19:03;;;;;;;1999.90;999.90;;;;;;;35.50;16.96;96025.91;5028242;28;20033;-72
2022/07/13 10:21:56;;;;;;;1999.90;999.90;;;;;;;35.88;15.85;96033.31;5028865;28;20029;-72
2022/07/13 10:24:22;;;;;;;1999.90;999.90;;;;;;;36.50;15.67;96028.00;5030072;28;20024;-71
2022/07/13 10:26:48;;;;;;;1999.90;999.90;;;;;;;36.55;16.43;96030.19;5024317;28;20034;-72
2022/07/13 10:29:16;;;;;;;1999.90;999.90;;;;;;;37.30;15.93;96023.72;5020412;28;20025;-71
2022/07/13 10:31:43;;;;;;;1999.90;999.90;;;;;;;37.55;14.99;96025.50;5010179;28;20109;-71
2022/07/13 10:34:13;;;;;;;1999.90;999.90;;;;;;;37.91;14.73;96024.78;5021589;28;20083;-71
2022/07/13 10:36:49;;;;;;;1999.90;999.90;;;;;;;37.96;14.86;96022.16;5027851;28;20091;-71
2022/07/13 10:39:15;;;;;;;1999.90;999.90;;;;;;;38.39;14.55;96027.84;5030289;28;20111;-70
2022/07/13 10:41:57;;;;;;;1999.90;999.90;;;;;;;37.63;14.00;96018.41;5031176;28;20359;-71
2022/07/13 10:44:39;;;;;;;1999.90;999.90;;;;;;;37.98;14.60;96030.00;5032899;28;20486;-71
2022/07/13 10:47:09;;;;;;;1999.90;999.90;;;;;;;38.53;13.64;96034.78;5031979;28;20060;-71
2022/07/13 10:49:51;;;;;;;1999.90;999.90;;;;;;;38.49;13.77;96026.59;5029614;28;20030;-72
2022/07/13 10:52:20;;;;;;;1999.90;999.90;;;;;;;36.11;15.50;96037.69;5025251;28;20537;-71
2022/07/13 10:55:05;;;;;;;1999.90;999.90;;;;;;;36.67;14.82;96032.06;5013535;28;20026;-71
2022/07/13 10:57:33;;;;;;;1999.90;999.90;;;;;;;37.27;13.74;96030.19;5039033;28;20482;-72
2022/07/13 11:00:18;;;;;;;1999.90;999.90;;;;;;;37.36;13.34;96031.00;5047650;28;20060;-72
2022/07/13 11:03:05;;;;;;;1999.90;999.90;;;;;;;37.12;13.76;96019.66;5031110;28;20022;-72